sensor_id;sensor_type;location;lat;lon;timestamp;temperature;humidity
36856;DHT22;22788;51.434;6.786;2022-12-18T00:02:21;0.20;91.50
36856;DHT22;22788;51.434;6.786;2022-12-18T00:04:47;0.20;91.50
36856;DHT22;22788;51.434;6.786;2022-12-18T00:07:13;0.30;91.50
36856;DHT22;22788;51.434;6.786;2022-12-18T00:09:39;0.20;91.50
36856;DHT22;22788;51.434;6.786;2022-12-18T00:12:05;0.20;91.60
36856;DHT22;22788;51.434;6.786;2022-12-18T00:14:32;0.20;91.60
36856;DHT22;22788;51.434;6.786;2022-12-18T00:17:00;0.10;91.70
36856;DHT22;22788;51.434;6.786;2022-12-18T00:19:26;0.20;91.70
36856;DHT22;22788;51.434;6.786;2022-12-18T00:21:53;0.20;91.70
36856;DHT22;22788;51.434;6.786;2022-12-18T00:24:19;0.20;91.60
36856;DHT22;22788;51.434;6.786;2022-12-18T00:26:45;0.20;91.60
36856;DHT22;22788;51.434;6.786;2022-12-18T00:29:13;0.20;91.80
36856;DHT22;22788;51.434;6.786;2022-12-18T00:31:39;0.20;91.50
36856;DHT22;22788;51.434;6.786;2022-12-18T00:34:08;0.20;91.50
36856;DHT22;22788;51.434;6.786;2022-12-18T00:36:35;0.20;91.50
36856;DHT22;22788;51.434;6.786;2022-12-18T00:39:03;0.20;91.50
36856;DHT22;22788;51.434;6.786;2022-12-18T00:41:30;0.20;91.60
36856;DHT22;22788;51.434;6.786;2022-12-18T00:43:56;0.10;91.60
36856;DHT22;22788;51.434;6.786;2022-12-18T00:46:22;0.10;91.70
36856;DHT22;22788;51.434;6.786;2022-12-18T00:48:48;0.10;91.60
36856;DHT22;22788;51.434;6.786;2022-12-18T00:51:16;0.10;91.70
36856;DHT22;22788;51.434;6.786;2022-12-18T00:53:42;0.10;91.50
36856;DHT22;22788;51.434;6.786;2022-12-18T00:56:08;0.20;91.50
36856;DHT22;22788;51.434;6.786;2022-12-18T00:58:34;0.20;91.40
36856;DHT22;22788;51.434;6.786;2022-12-18T01:01:00;0.20;91.70
36856;DHT22;22788;51.434;6.786;2022-12-18T01:03:26;0.20;91.40
36856;DHT22;22788;51.434;6.786;2022-12-18T01:05:52;0.20;91.30
36856;DHT22;22788;51.434;6.786;2022-12-18T01:08:19;0.20;91.40
36856;DHT22;22788;51.434;6.786;2022-12-18T01:10:45;0.20;91.30
36856;DHT22;22788;51.434;6.786;2022-12-18T01:13:11;0.10;91.40
36856;DHT22;22788;51.434;6.786;2022-12-18T01:15:37;0.10;91.50
36856;DHT22;22788;51.434;6.786;2022-12-18T01:18:05;0.10;91.30
36856;DHT22;22788;51.434;6.786;2022-12-18T01:20:31;0.10;91.40
36856;DHT22;22788;51.434;6.786;2022-12-18T01:22:57;0.10;91.50
36856;DHT22;22788;51.434;6.786;2022-12-18T01:25:24;0.00;91.60
36856;DHT22;22788;51.434;6.786;2022-12-18T01:27:51;0.10;91.50
36856;DHT22;22788;51.434;6.786;2022-12-18T01:30:17;0.10;91.40
36856;DHT22;22788;51.434;6.786;2022-12-18T01:32:43;0.10;91.40
36856;DHT22;22788;51.434;6.786;2022-12-18T01:35:09;0.20;91.30
36856;DHT22;22788;51.434;6.786;2022-12-18T01:37:35;0.10;91.30
36856;DHT22;22788;51.434;6.786;2022-12-18T01:40:01;0.20;91.40
36856;DHT22;22788;51.434;6.786;2022-12-18T01:42:28;0.10;91.40
36856;DHT22;22788;51.434;6.786;2022-12-18T01:44:58;0.10;91.40
36856;DHT22;22788;51.434;6.786;2022-12-18T01:47:27;0.10;91.40
36856;DHT22;22788;51.434;6.786;2022-12-18T01:49:55;0.10;91.40
36856;DHT22;22788;51.434;6.786;2022-12-18T01:52:22;0.10;91.30
36856;DHT22;22788;51.434;6.786;2022-12-18T01:54:50;0.00;91.40
36856;DHT22;22788;51.434;6.786;2022-12-18T01:57:17;0.00;91.50
36856;DHT22;22788;51.434;6.786;2022-12-18T01:59:49;0.10;91.70
36856;DHT22;22788;51.434;6.786;2022-12-18T02:02:16;0.00;91.60
36856;DHT22;22788;51.434;6.786;2022-12-18T02:04:43;0.00;91.70
36856;DHT22;22788;51.434;6.786;2022-12-18T02:07:16;0.00;91.40
36856;DHT22;22788;51.434;6.786;2022-12-18T02:09:47;0.10;91.50
36856;DHT22;22788;51.434;6.786;2022-12-18T02:12:19;0.10;91.40
36856;DHT22;22788;51.434;6.786;2022-12-18T02:14:53;0.10;91.30
36856;DHT22;22788;51.434;6.786;2022-12-18T02:17:22;0.10;91.40
36856;DHT22;22788;51.434;6.786;2022-12-18T02:20:03;0.00;91.30
36856;DHT22;22788;51.434;6.786;2022-12-18T02:22:41;0.00;91.60
36856;DHT22;22788;51.434;6.786;2022-12-18T02:25:21;0.00;91.40
36856;DHT22;22788;51.434;6.786;2022-12-18T02:27:52;0.10;91.40
36856;DHT22;22788;51.434;6.786;2022-12-18T02:30:20;0.00;91.30
36856;DHT22;22788;51.434;6.786;2022-12-18T02:32:50;0.00;91.40
36856;DHT22;22788;51.434;6.786;2022-12-18T02:35:22;0.10;91.40
36856;DHT22;22788;51.434;6.786;2022-12-18T02:37:48;0.00;91.40
36856;DHT22;22788;51.434;6.786;2022-12-18T02:40:16;0.00;91.40
36856;DHT22;22788;51.434;6.786;2022-12-18T02:42:43;0.00;91.40
36856;DHT22;22788;51.434;6.786;2022-12-18T02:45:11;0.00;91.40
36856;DHT22;22788;51.434;6.786;2022-12-18T02:47:39;0.00;91.50
36856;DHT22;22788;51.434;6.786;2022-12-18T02:50:10;0.00;91.40
36856;DHT22;22788;51.434;6.786;2022-12-18T02:52:45;0.10;91.40
36856;DHT22;22788;51.434;6.786;2022-12-18T02:55:23;0.10;91.30
36856;DHT22;22788;51.434;6.786;2022-12-18T02:57:55;0.10;91.30
36856;DHT22;22788;51.434;6.786;2022-12-18T03:00:30;0.00;91.30
36856;DHT22;22788;51.434;6.786;2022-12-18T03:03:01;0.10;91.40
36856;DHT22;22788;51.434;6.786;2022-12-18T03:05:34;0.10;91.30
36856;DHT22;22788;51.434;6.786;2022-12-18T03:08:05;0.10;91.30
36856;DHT22;22788;51.434;6.786;2022-12-18T03:10:35;0.10;91.30
36856;DHT22;22788;51.434;6.786;2022-12-18T03:13:06;0.10;91.20
36856;DHT22;22788;51.434;6.786;2022-12-18T03:15:38;0.10;91.30
36856;DHT22;22788;51.434;6.786;2022-12-18T03:18:10;0.10;91.20
36856;DHT22;22788;51.434;6.786;2022-12-18T03:20:41;0.10;91.20
36856;DHT22;22788;51.434;6.786;2022-12-18T03:23:11;0.10;91.30
36856;DHT22;22788;51.434;6.786;2022-12-18T03:25:41;0.10;91.30
36856;DHT22;22788;51.434;6.786;2022-12-18T03:28:10;0.00;91.30
36856;DHT22;22788;51.434;6.786;2022-12-18T03:30:40;0.10;91.30
36856;DHT22;22788;51.434;6.786;2022-12-18T03:33:10;0.00;91.30
36856;DHT22;22788;51.434;6.786;2022-12-18T03:35:39;0.10;91.30
36856;DHT22;22788;51.434;6.786;2022-12-18T03:38:06;0.00;91.40
36856;DHT22;22788;51.434;6.786;2022-12-18T03:40:42;0.00;91.50
36856;DHT22;22788;51.434;6.786;2022-12-18T03:43:13;-0.10;91.50
36856;DHT22;22788;51.434;6.786;2022-12-18T03:45:50;-0.10;91.40
36856;DHT22;22788;51.434;6.786;2022-12-18T03:48:21;-0.10;91.60
36856;DHT22;22788;51.434;6.786;2022-12-18T03:50:55;-0.20;91.30
36856;DHT22;22788;51.434;6.786;2022-12-18T03:53:29;-0.20;91.70
36856;DHT22;22788;51.434;6.786;2022-12-18T03:55:59;-0.20;91.80
36856;DHT22;22788;51.434;6.786;2022-12-18T03:58:27;-0.20;91.70
36856;DHT22;22788;51.434;6.786;2022-12-18T04:00:57;-0.10;91.70
36856;DHT22;22788;51.434;6.786;2022-12-18T04:03:26;-0.10;91.60
36856;DHT22;22788;51.434;6.786;2022-12-18T04:05:55;-0.10;91.80
36856;DHT22;22788;51.434;6.786;2022-12-18T04:08:24;-0.10;91.60
36856;DHT22;22788;51.434;6.786;2022-12-18T04:10:50;-0.10;91.50
36856;DHT22;22788;51.434;6.786;2022-12-18T04:13:21;-0.10;91.70
36856;DHT22;22788;51.434;6.786;2022-12-18T04:15:48;-0.20;91.80
36856;DHT22;22788;51.434;6.786;2022-12-18T04:18:15;-0.10;91.70
36856;DHT22;22788;51.434;6.786;2022-12-18T04:20:41;-0.20;91.50
36856;DHT22;22788;51.434;6.786;2022-12-18T04:23:07;-0.10;91.70
36856;DHT22;22788;51.434;6.786;2022-12-18T04:25:33;0.00;91.60
36856;DHT22;22788;51.434;6.786;2022-12-18T04:27:59;0.00;91.50
36856;DHT22;22788;51.434;6.786;2022-12-18T04:30:25;0.00;91.40
36856;DHT22;22788;51.434;6.786;2022-12-18T04:32:51;0.00;91.30
36856;DHT22;22788;51.434;6.786;2022-12-18T04:35:19;0.00;91.40
36856;DHT22;22788;51.434;6.786;2022-12-18T04:37:45;0.00;91.40
36856;DHT22;22788;51.434;6.786;2022-12-18T04:40:12;0.00;91.40
36856;DHT22;22788;51.434;6.786;2022-12-18T04:42:39;0.00;91.50
36856;DHT22;22788;51.434;6.786;2022-12-18T04:45:06;0.00;91.40
36856;DHT22;22788;51.434;6.786;2022-12-18T04:47:32;0.10;91.40
36856;DHT22;22788;51.434;6.786;2022-12-18T04:49:59;0.00;91.40
36856;DHT22;22788;51.434;6.786;2022-12-18T04:52:26;0.00;91.50
36856;DHT22;22788;51.434;6.786;2022-12-18T04:54:52;-0.10;91.50
36856;DHT22;22788;51.434;6.786;2022-12-18T04:57:18;-0.10;91.60
36856;DHT22;22788;51.434;6.786;2022-12-18T04:59:44;-0.10;91.60
36856;DHT22;22788;51.434;6.786;2022-12-18T05:02:10;0.00;91.60
36856;DHT22;22788;51.434;6.786;2022-12-18T05:04:36;0.00;91.80
36856;DHT22;22788;51.434;6.786;2022-12-18T05:07:03;-0.10;91.50
36856;DHT22;22788;51.434;6.786;2022-12-18T05:09:30;-0.10;91.60
36856;DHT22;22788;51.434;6.786;2022-12-18T05:11:56;-0.10;91.70
36856;DHT22;22788;51.434;6.786;2022-12-18T05:14:22;-0.10;91.70
36856;DHT22;22788;51.434;6.786;2022-12-18T05:16:48;-0.10;91.70
36856;DHT22;22788;51.434;6.786;2022-12-18T05:19:14;-0.20;91.70
36856;DHT22;22788;51.434;6.786;2022-12-18T05:21:40;-0.20;91.70
36856;DHT22;22788;51.434;6.786;2022-12-18T05:24:06;-0.10;91.60
36856;DHT22;22788;51.434;6.786;2022-12-18T05:26:34;-0.10;91.60
36856;DHT22;22788;51.434;6.786;2022-12-18T05:29:00;-0.10;91.60
36856;DHT22;22788;51.434;6.786;2022-12-18T05:31:26;-0.10;91.60
36856;DHT22;22788;51.434;6.786;2022-12-18T05:33:52;-0.10;91.60
36856;DHT22;22788;51.434;6.786;2022-12-18T05:36:18;-0.20;91.60
36856;DHT22;22788;51.434;6.786;2022-12-18T05:38:44;-0.20;91.70
36856;DHT22;22788;51.434;6.786;2022-12-18T05:41:10;-0.10;91.70
36856;DHT22;22788;51.434;6.786;2022-12-18T05:43:39;-0.10;91.60
36856;DHT22;22788;51.434;6.786;2022-12-18T05:46:05;-0.10;91.50
36856;DHT22;22788;51.434;6.786;2022-12-18T05:48:32;-0.10;91.60
36856;DHT22;22788;51.434;6.786;2022-12-18T05:51:03;-0.10;91.50
36856;DHT22;22788;51.434;6.786;2022-12-18T05:53:29;-0.10;91.60
36856;DHT22;22788;51.434;6.786;2022-12-18T05:56:00;-0.20;91.50
36856;DHT22;22788;51.434;6.786;2022-12-18T05:58:26;-0.10;91.50
36856;DHT22;22788;51.434;6.786;2022-12-18T06:00:53;-0.10;91.40
36856;DHT22;22788;51.434;6.786;2022-12-18T06:03:19;-0.10;91.40
36856;DHT22;22788;51.434;6.786;2022-12-18T06:05:45;-0.10;91.40
36856;DHT22;22788;51.434;6.786;2022-12-18T06:08:12;-0.10;91.50
36856;DHT22;22788;51.434;6.786;2022-12-18T06:10:38;-0.10;91.40
36856;DHT22;22788;51.434;6.786;2022-12-18T06:13:04;-0.10;91.40
36856;DHT22;22788;51.434;6.786;2022-12-18T06:15:31;-0.10;91.50
36856;DHT22;22788;51.434;6.786;2022-12-18T06:17:59;-0.10;91.50
36856;DHT22;22788;51.434;6.786;2022-12-18T06:20:26;-0.10;91.50
36856;DHT22;22788;51.434;6.786;2022-12-18T06:22:52;-0.10;91.40
36856;DHT22;22788;51.434;6.786;2022-12-18T06:25:18;-0.10;91.40
36856;DHT22;22788;51.434;6.786;2022-12-18T06:27:44;-0.10;91.40
36856;DHT22;22788;51.434;6.786;2022-12-18T06:30:11;-0.10;91.30
36856;DHT22;22788;51.434;6.786;2022-12-18T06:32:37;-0.10;91.30
36856;DHT22;22788;51.434;6.786;2022-12-18T06:35:06;-0.10;91.30
36856;DHT22;22788;51.434;6.786;2022-12-18T06:37:32;0.00;91.30
36856;DHT22;22788;51.434;6.786;2022-12-18T06:39:58;0.00;91.30
36856;DHT22;22788;51.434;6.786;2022-12-18T06:42:24;-0.10;91.30
36856;DHT22;22788;51.434;6.786;2022-12-18T06:44:50;-0.10;91.30
36856;DHT22;22788;51.434;6.786;2022-12-18T06:47:16;-0.10;91.30
36856;DHT22;22788;51.434;6.786;2022-12-18T06:49:43;-0.10;91.20
36856;DHT22;22788;51.434;6.786;2022-12-18T06:52:10;-0.10;91.30
36856;DHT22;22788;51.434;6.786;2022-12-18T06:54:36;0.00;91.30
36856;DHT22;22788;51.434;6.786;2022-12-18T06:57:03;0.00;91.20
36856;DHT22;22788;51.434;6.786;2022-12-18T06:59:29;-0.10;91.20
36856;DHT22;22788;51.434;6.786;2022-12-18T07:01:55;-0.10;91.30
36856;DHT22;22788;51.434;6.786;2022-12-18T07:04:21;-0.20;91.40
36856;DHT22;22788;51.434;6.786;2022-12-18T07:06:47;-0.20;91.40
36856;DHT22;22788;51.434;6.786;2022-12-18T07:09:14;-0.20;91.30
36856;DHT22;22788;51.434;6.786;2022-12-18T07:11:40;-0.20;91.40
36856;DHT22;22788;51.434;6.786;2022-12-18T07:14:06;-0.30;91.50
36856;DHT22;22788;51.434;6.786;2022-12-18T07:16:32;-0.30;91.50
36856;DHT22;22788;51.434;6.786;2022-12-18T07:18:58;-0.30;91.60
36856;DHT22;22788;51.434;6.786;2022-12-18T07:21:25;-0.30;91.60
36856;DHT22;22788;51.434;6.786;2022-12-18T07:23:51;-0.20;91.50
36856;DHT22;22788;51.434;6.786;2022-12-18T07:26:20;-0.20;91.40
36856;DHT22;22788;51.434;6.786;2022-12-18T07:28:47;-0.20;91.40
36856;DHT22;22788;51.434;6.786;2022-12-18T07:31:16;-0.20;91.40
36856;DHT22;22788;51.434;6.786;2022-12-18T07:33:42;-0.20;91.30
36856;DHT22;22788;51.434;6.786;2022-12-18T07:36:09;-0.20;91.30
36856;DHT22;22788;51.434;6.786;2022-12-18T07:38:36;-0.30;91.40
36856;DHT22;22788;51.434;6.786;2022-12-18T07:41:03;-0.30;91.40
36856;DHT22;22788;51.434;6.786;2022-12-18T07:43:31;-0.30;91.50
36856;DHT22;22788;51.434;6.786;2022-12-18T07:45:57;-0.40;91.60
36856;DHT22;22788;51.434;6.786;2022-12-18T07:48:23;-0.40;91.70
36856;DHT22;22788;51.434;6.786;2022-12-18T07:50:50;-0.50;91.80
36856;DHT22;22788;51.434;6.786;2022-12-18T07:53:16;-0.40;91.80
36856;DHT22;22788;51.434;6.786;2022-12-18T07:55:42;-0.30;91.60
36856;DHT22;22788;51.434;6.786;2022-12-18T07:58:08;-0.30;91.40
36856;DHT22;22788;51.434;6.786;2022-12-18T08:00:36;-0.20;91.30
36856;DHT22;22788;51.434;6.786;2022-12-18T08:03:02;-0.20;91.30
36856;DHT22;22788;51.434;6.786;2022-12-18T08:05:28;-0.30;91.30
36856;DHT22;22788;51.434;6.786;2022-12-18T08:07:54;-0.20;91.20
36856;DHT22;22788;51.434;6.786;2022-12-18T08:10:20;-0.20;91.50
36856;DHT22;22788;51.434;6.786;2022-12-18T08:12:49;-0.30;91.30
36856;DHT22;22788;51.434;6.786;2022-12-18T08:15:15;-0.30;91.40
36856;DHT22;22788;51.434;6.786;2022-12-18T08:17:43;-0.30;91.40
36856;DHT22;22788;51.434;6.786;2022-12-18T08:20:09;-0.30;91.40
36856;DHT22;22788;51.434;6.786;2022-12-18T08:22:36;-0.30;91.40
36856;DHT22;22788;51.434;6.786;2022-12-18T08:25:02;-0.20;91.30
36856;DHT22;22788;51.434;6.786;2022-12-18T08:27:28;-0.30;91.30
36856;DHT22;22788;51.434;6.786;2022-12-18T08:29:54;-0.30;91.30
36856;DHT22;22788;51.434;6.786;2022-12-18T08:32:20;-0.30;91.60
36856;DHT22;22788;51.434;6.786;2022-12-18T08:34:48;-0.30;91.40
36856;DHT22;22788;51.434;6.786;2022-12-18T08:37:14;-0.30;91.30
36856;DHT22;22788;51.434;6.786;2022-12-18T08:39:40;-0.40;91.30
36856;DHT22;22788;51.434;6.786;2022-12-18T08:42:06;-0.40;91.40
36856;DHT22;22788;51.434;6.786;2022-12-18T08:44:32;-0.40;91.60
36856;DHT22;22788;51.434;6.786;2022-12-18T08:46:58;-0.50;91.60
36856;DHT22;22788;51.434;6.786;2022-12-18T08:49:24;-0.50;91.80
36856;DHT22;22788;51.434;6.786;2022-12-18T08:51:55;-0.60;91.90
36856;DHT22;22788;51.434;6.786;2022-12-18T08:54:21;-0.50;91.80
36856;DHT22;22788;51.434;6.786;2022-12-18T08:56:47;-0.50;91.90
36856;DHT22;22788;51.434;6.786;2022-12-18T08:59:13;-0.50;91.70
36856;DHT22;22788;51.434;6.786;2022-12-18T09:01:39;-0.40;91.60
36856;DHT22;22788;51.434;6.786;2022-12-18T09:04:06;-0.40;91.70
36856;DHT22;22788;51.434;6.786;2022-12-18T09:06:32;-0.40;91.60
36856;DHT22;22788;51.434;6.786;2022-12-18T09:08:59;-0.30;91.60
36856;DHT22;22788;51.434;6.786;2022-12-18T09:11:26;-0.30;91.50
36856;DHT22;22788;51.434;6.786;2022-12-18T09:13:53;-0.30;91.50
36856;DHT22;22788;51.434;6.786;2022-12-18T09:16:20;-0.30;91.50
36856;DHT22;22788;51.434;6.786;2022-12-18T09:18:46;-0.30;91.50
36856;DHT22;22788;51.434;6.786;2022-12-18T09:21:14;-0.30;91.60
36856;DHT22;22788;51.434;6.786;2022-12-18T09:23:41;-0.30;91.60
36856;DHT22;22788;51.434;6.786;2022-12-18T09:26:09;-0.40;91.40
36856;DHT22;22788;51.434;6.786;2022-12-18T09:28:35;-0.40;91.70
36856;DHT22;22788;51.434;6.786;2022-12-18T09:31:04;-0.40;91.20
36856;DHT22;22788;51.434;6.786;2022-12-18T09:33:30;-0.40;91.50
36856;DHT22;22788;51.434;6.786;2022-12-18T09:35:56;-0.50;91.50
36856;DHT22;22788;51.434;6.786;2022-12-18T09:38:22;-0.60;91.90
36856;DHT22;22788;51.434;6.786;2022-12-18T09:40:50;-0.50;91.80
36856;DHT22;22788;51.434;6.786;2022-12-18T09:43:20;-0.50;91.90
36856;DHT22;22788;51.434;6.786;2022-12-18T09:45:51;-0.40;91.90
36856;DHT22;22788;51.434;6.786;2022-12-18T09:48:21;-0.40;91.80
36856;DHT22;22788;51.434;6.786;2022-12-18T09:50:50;-0.40;91.80
36856;DHT22;22788;51.434;6.786;2022-12-18T09:53:20;-0.40;91.90
36856;DHT22;22788;51.434;6.786;2022-12-18T09:55:48;-0.40;91.80
36856;DHT22;22788;51.434;6.786;2022-12-18T09:58:31;-0.30;91.50
36856;DHT22;22788;51.434;6.786;2022-12-18T10:01:00;-0.40;91.80
36856;DHT22;22788;51.434;6.786;2022-12-18T10:03:26;-0.40;91.80
36856;DHT22;22788;51.434;6.786;2022-12-18T10:06:00;-0.40;91.60
36856;DHT22;22788;51.434;6.786;2022-12-18T10:08:37;-0.40;91.70
36856;DHT22;22788;51.434;6.786;2022-12-18T10:11:21;-0.40;91.50
36856;DHT22;22788;51.434;6.786;2022-12-18T10:13:52;-0.30;91.70
36856;DHT22;22788;51.434;6.786;2022-12-18T10:16:27;-0.20;91.50
36856;DHT22;22788;51.434;6.786;2022-12-18T10:19:21;-0.30;90.70
36856;DHT22;22788;51.434;6.786;2022-12-18T10:21:53;-0.30;91.30
36856;DHT22;22788;51.434;6.786;2022-12-18T10:24:25;-0.30;91.10
36856;DHT22;22788;51.434;6.786;2022-12-18T10:26:56;-0.30;91.20
36856;DHT22;22788;51.434;6.786;2022-12-18T10:29:26;-0.30;91.00
36856;DHT22;22788;51.434;6.786;2022-12-18T10:31:52;-0.20;91.20
36856;DHT22;22788;51.434;6.786;2022-12-18T10:34:18;-0.10;91.00
36856;DHT22;22788;51.434;6.786;2022-12-18T10:36:44;-0.10;91.00
36856;DHT22;22788;51.434;6.786;2022-12-18T10:39:18;-0.10;91.00
36856;DHT22;22788;51.434;6.786;2022-12-18T10:41:44;-0.10;91.00
36856;DHT22;22788;51.434;6.786;2022-12-18T10:44:15;-0.10;90.60
36856;DHT22;22788;51.434;6.786;2022-12-18T10:46:44;0.00;90.80
36856;DHT22;22788;51.434;6.786;2022-12-18T10:49:21;0.00;91.00
36856;DHT22;22788;51.434;6.786;2022-12-18T10:51:47;0.00;91.00
36856;DHT22;22788;51.434;6.786;2022-12-18T10:54:15;0.00;90.60
36856;DHT22;22788;51.434;6.786;2022-12-18T10:56:43;0.00;90.90
36856;DHT22;22788;51.434;6.786;2022-12-18T10:59:10;0.00;89.90
36856;DHT22;22788;51.434;6.786;2022-12-18T11:01:52;0.00;90.80
36856;DHT22;22788;51.434;6.786;2022-12-18T11:04:21;0.00;90.40
36856;DHT22;22788;51.434;6.786;2022-12-18T11:06:56;0.00;91.10
36856;DHT22;22788;51.434;6.786;2022-12-18T11:09:23;0.00;91.10
36856;DHT22;22788;51.434;6.786;2022-12-18T11:11:51;0.00;90.90
36856;DHT22;22788;51.434;6.786;2022-12-18T11:14:21;0.00;90.50
36856;DHT22;22788;51.434;6.786;2022-12-18T11:16:50;0.00;91.00
36856;DHT22;22788;51.434;6.786;2022-12-18T11:19:26;0.00;91.10
36856;DHT22;22788;51.434;6.786;2022-12-18T11:21:53;0.00;90.70
36856;DHT22;22788;51.434;6.786;2022-12-18T11:24:22;0.00;90.20
36856;DHT22;22788;51.434;6.786;2022-12-18T11:26:51;0.10;90.60
36856;DHT22;22788;51.434;6.786;2022-12-18T11:29:19;0.00;90.60
36856;DHT22;22788;51.434;6.786;2022-12-18T11:31:48;0.00;91.00
36856;DHT22;22788;51.434;6.786;2022-12-18T11:34:20;0.00;90.60
36856;DHT22;22788;51.434;6.786;2022-12-18T11:36:48;0.00;91.00
36856;DHT22;22788;51.434;6.786;2022-12-18T11:39:18;0.10;90.80
36856;DHT22;22788;51.434;6.786;2022-12-18T11:41:50;0.10;90.90
36856;DHT22;22788;51.434;6.786;2022-12-18T11:44:22;0.10;90.90
36856;DHT22;22788;51.434;6.786;2022-12-18T11:46:55;0.10;91.30
36856;DHT22;22788;51.434;6.786;2022-12-18T11:49:28;0.10;90.90
36856;DHT22;22788;51.434;6.786;2022-12-18T11:52:01;0.10;90.60
36856;DHT22;22788;51.434;6.786;2022-12-18T11:54:30;0.20;90.40
36856;DHT22;22788;51.434;6.786;2022-12-18T11:57:05;0.20;90.70
36856;DHT22;22788;51.434;6.786;2022-12-18T11:59:40;0.20;90.10
36856;DHT22;22788;51.434;6.786;2022-12-18T12:02:23;0.20;90.80
36856;DHT22;22788;51.434;6.786;2022-12-18T12:05:21;0.30;90.70
36856;DHT22;22788;51.434;6.786;2022-12-18T12:07:55;0.30;90.10
36856;DHT22;22788;51.434;6.786;2022-12-18T12:10:35;0.30;90.80
36856;DHT22;22788;51.434;6.786;2022-12-18T12:13:20;0.30;90.40
36856;DHT22;22788;51.434;6.786;2022-12-18T12:15:56;0.30;90.90
36856;DHT22;22788;51.434;6.786;2022-12-18T12:18:29;0.30;90.30
36856;DHT22;22788;51.434;6.786;2022-12-18T12:21:05;0.30;89.80
36856;DHT22;22788;51.434;6.786;2022-12-18T12:23:40;0.30;90.60
36856;DHT22;22788;51.434;6.786;2022-12-18T12:26:11;0.30;90.80
36856;DHT22;22788;51.434;6.786;2022-12-18T12:29:00;0.40;90.60
36856;DHT22;22788;51.434;6.786;2022-12-18T12:31:36;0.40;90.40
36856;DHT22;22788;51.434;6.786;2022-12-18T12:34:13;0.40;90.40
36856;DHT22;22788;51.434;6.786;2022-12-18T12:36:54;0.40;89.60
36856;DHT22;22788;51.434;6.786;2022-12-18T12:39:28;0.40;89.70
36856;DHT22;22788;51.434;6.786;2022-12-18T12:41:56;0.50;89.90
36856;DHT22;22788;51.434;6.786;2022-12-18T12:44:26;0.50;90.30
36856;DHT22;22788;51.434;6.786;2022-12-18T12:46:57;0.40;90.00
36856;DHT22;22788;51.434;6.786;2022-12-18T12:49:27;0.50;90.30
36856;DHT22;22788;51.434;6.786;2022-12-18T12:52:03;0.50;89.60
36856;DHT22;22788;51.434;6.786;2022-12-18T12:54:32;0.50;90.20
36856;DHT22;22788;51.434;6.786;2022-12-18T12:57:05;0.50;89.90
36856;DHT22;22788;51.434;6.786;2022-12-18T12:59:39;0.50;90.00
36856;DHT22;22788;51.434;6.786;2022-12-18T13:02:15;0.50;88.50
36856;DHT22;22788;51.434;6.786;2022-12-18T13:04:49;0.50;87.90
36856;DHT22;22788;51.434;6.786;2022-12-18T13:07:24;0.60;88.30
36856;DHT22;22788;51.434;6.786;2022-12-18T13:12:54;0.60;90.10
36856;DHT22;22788;51.434;6.786;2022-12-18T13:15:22;0.60;87.90
36856;DHT22;22788;51.434;6.786;2022-12-18T13:17:49;0.60;90.30
36856;DHT22;22788;51.434;6.786;2022-12-18T13:20:33;0.60;88.10
36856;DHT22;22788;51.434;6.786;2022-12-18T13:23:00;0.60;90.20
36856;DHT22;22788;51.434;6.786;2022-12-18T13:25:29;0.70;88.30
36856;DHT22;22788;51.434;6.786;2022-12-18T13:28:20;0.70;88.80
36856;DHT22;22788;51.434;6.786;2022-12-18T13:30:52;0.70;89.30
36856;DHT22;22788;51.434;6.786;2022-12-18T13:33:39;0.60;89.40
36856;DHT22;22788;51.434;6.786;2022-12-18T13:36:13;0.60;88.20
36856;DHT22;22788;51.434;6.786;2022-12-18T13:38:42;0.70;89.10
36856;DHT22;22788;51.434;6.786;2022-12-18T13:41:23;0.70;90.30
36856;DHT22;22788;51.434;6.786;2022-12-18T13:43:50;0.70;89.10
36856;DHT22;22788;51.434;6.786;2022-12-18T13:46:21;0.70;89.80
36856;DHT22;22788;51.434;6.786;2022-12-18T13:48:57;0.70;89.50
36856;DHT22;22788;51.434;6.786;2022-12-18T13:51:24;0.70;88.30
36856;DHT22;22788;51.434;6.786;2022-12-18T13:53:55;0.70;87.70
36856;DHT22;22788;51.434;6.786;2022-12-18T13:56:24;0.70;86.40
36856;DHT22;22788;51.434;6.786;2022-12-18T13:59:11;0.70;89.40
36856;DHT22;22788;51.434;6.786;2022-12-18T14:01:42;0.70;88.30
36856;DHT22;22788;51.434;6.786;2022-12-18T14:04:10;0.80;88.40
36856;DHT22;22788;51.434;6.786;2022-12-18T14:06:37;0.80;87.70
36856;DHT22;22788;51.434;6.786;2022-12-18T14:09:04;0.80;88.90
36856;DHT22;22788;51.434;6.786;2022-12-18T14:11:31;0.80;88.30
36856;DHT22;22788;51.434;6.786;2022-12-18T14:13:57;0.80;88.30
36856;DHT22;22788;51.434;6.786;2022-12-18T14:16:23;0.80;89.40
36856;DHT22;22788;51.434;6.786;2022-12-18T14:18:53;0.80;87.30
36856;DHT22;22788;51.434;6.786;2022-12-18T14:21:22;0.70;88.50
36856;DHT22;22788;51.434;6.786;2022-12-18T14:23:49;0.70;88.30
36856;DHT22;22788;51.434;6.786;2022-12-18T14:26:30;0.70;87.70
36856;DHT22;22788;51.434;6.786;2022-12-18T14:28:58;0.80;88.50
36856;DHT22;22788;51.434;6.786;2022-12-18T14:31:26;0.80;90.10
36856;DHT22;22788;51.434;6.786;2022-12-18T14:33:53;0.80;89.50
36856;DHT22;22788;51.434;6.786;2022-12-18T14:36:20;0.80;87.70
36856;DHT22;22788;51.434;6.786;2022-12-18T14:38:49;0.80;88.50
36856;DHT22;22788;51.434;6.786;2022-12-18T14:41:17;0.90;87.30
36856;DHT22;22788;51.434;6.786;2022-12-18T14:43:46;0.90;89.50
36856;DHT22;22788;51.434;6.786;2022-12-18T14:46:32;0.80;89.70
36856;DHT22;22788;51.434;6.786;2022-12-18T14:49:01;0.80;88.20
36856;DHT22;22788;51.434;6.786;2022-12-18T14:51:30;0.80;88.50
36856;DHT22;22788;51.434;6.786;2022-12-18T14:53:58;0.80;86.90
36856;DHT22;22788;51.434;6.786;2022-12-18T14:56:26;0.80;88.30
36856;DHT22;22788;51.434;6.786;2022-12-18T14:58:56;0.80;90.00
36856;DHT22;22788;51.434;6.786;2022-12-18T15:01:28;0.80;89.50
36856;DHT22;22788;51.434;6.786;2022-12-18T15:03:56;0.80;89.10
36856;DHT22;22788;51.434;6.786;2022-12-18T15:06:31;0.80;87.90
36856;DHT22;22788;51.434;6.786;2022-12-18T15:08:59;0.80;87.50
36856;DHT22;22788;51.434;6.786;2022-12-18T15:11:44;0.80;87.40
36856;DHT22;22788;51.434;6.786;2022-12-18T15:14:32;0.80;88.30
36856;DHT22;22788;51.434;6.786;2022-12-18T15:16:58;0.80;90.20
36856;DHT22;22788;51.434;6.786;2022-12-18T15:19:31;0.80;86.90
36856;DHT22;22788;51.434;6.786;2022-12-18T15:21:58;0.80;88.50
36856;DHT22;22788;51.434;6.786;2022-12-18T15:24:27;0.80;89.50
36856;DHT22;22788;51.434;6.786;2022-12-18T15:26:55;0.80;87.30
36856;DHT22;22788;51.434;6.786;2022-12-18T15:29:21;0.90;88.60
36856;DHT22;22788;51.434;6.786;2022-12-18T15:32:02;0.80;89.20
36856;DHT22;22788;51.434;6.786;2022-12-18T15:34:29;0.80;87.90
36856;DHT22;22788;51.434;6.786;2022-12-18T15:36:55;0.80;88.80
36856;DHT22;22788;51.434;6.786;2022-12-18T15:39:21;0.80;87.30
36856;DHT22;22788;51.434;6.786;2022-12-18T15:41:47;0.90;87.80
36856;DHT22;22788;51.434;6.786;2022-12-18T15:44:22;0.90;89.20
36856;DHT22;22788;51.434;6.786;2022-12-18T15:46:49;0.90;89.10
36856;DHT22;22788;51.434;6.786;2022-12-18T15:49:16;0.90;88.00
36856;DHT22;22788;51.434;6.786;2022-12-18T15:51:42;0.90;87.10
36856;DHT22;22788;51.434;6.786;2022-12-18T15:54:11;0.90;88.70
36856;DHT22;22788;51.434;6.786;2022-12-18T15:56:39;0.90;88.10